Victoria International Airport
CYYJ : now visible

Airfield :











YOU CAN JOIN US ON...

 
LOGIN :

Register | Disclaimer

   EN    FR    IT 

 









Legend :    VFR   Marginal VFR   IFR   Intensive IFR   Very Intensive IFR
Visi :
Ceiling :
>= 8 km
>= 3000ft
5 to 8 km
1000 to 3000 ft
1500m to 5 km
500 to 1000 ft
800 to 1500m
200 to 500 ft
< 800m
< 200 ft
Symbols :   Thunderstorms  Fog  Heavy snow  Heavy precipitations  Wind > 20 kt






- Airport Elevation : 63 ft
- IATA code : YYJ


CYYJ - Victoria International

CURRENT METAR :
  • 250300Z 13010KT 30SM FEW019 SCT036 BKN050 11/11 A2979 RMK SC1SC3SC1 SLP090

EXPIRED METARs :
  • 250200Z 14015G20KT 30SM FEW020 SCT038 SCT250 11/10 A2979 RMK SC2SC2CI1 CI TR SLP089
  • 250100Z 13012KT 30SM SCT023 BKN040 BKN055 12/10 A2981 RMK SC3SC2SC1 SC TR SLP095
  • 250000Z 14013G19KT 30SM FEW015 FEW025 BKN038 BKN080 13/11 A2981 RMK SC1SC1SC3AC1 AC TR SLP097

TAF TAF CYYJ
Valid from the 25 at 00:00 until the 26 at 00:00 UTC


242340Z 2500/2524 12010KT P6SM SCT015 OVC030
TEMPO 2500/2509 5SM -SHRA BR FEW008 BKN012 OVC030
BECMG 2504/2506 VRB03KT
FM250900 VRB03KT P6SM SCT006 OVC012
TEMPO 2509/2517 4SM -SHRA BR BKN006 OVC010
PROB30 2509/2517 2SM -SHRA BR OVC004
FM251700 VRB03KT P6SM FEW008 SCT015 OVC030
FM252000 09008KT P6SM SCT050 SCT160
BECMG 2522/2524 23012G22KT RMK NXT FCST BY 250600Z
CZVR FIR / North America



MET'MAP, your aeronautical weather chart ! - Copyright ORBIFLY December 2007 - Disclaimer

ORBIFLY MET'MAP TEAM :

Programming & Development : Alexandra Zaïnal
Original concept : Baudouin d'Aumeries
Technical & hardware support : Manuel Goepfert
Assistance : Marc-Olivier Méhu




SOURCES & CREDITS :

   NOAA       Earth
Advisory